createdAt,value
2022-07-26T00:01:10.236Z,55.08
2022-07-26T00:05:08.311Z,55.04
2022-07-26T00:09:05.932Z,55.22
2022-07-26T00:13:03.266Z,55.03
2022-07-26T00:17:00.416Z,55.29
2022-07-26T00:21:40.704Z,55.31
2022-07-26T00:26:24.830Z,55.37
2022-07-26T00:30:40.820Z,55.46
2022-07-26T00:34:37.872Z,55.38
2022-07-26T00:38:35.157Z,55.29
2022-07-26T00:42:32.298Z,55.71
2022-07-26T00:46:29.438Z,55.54
2022-07-26T00:50:26.594Z,55.67
2022-07-26T00:54:23.732Z,55.86
2022-07-26T00:58:20.779Z,56.30
2022-07-26T01:02:19.024Z,55.77
2022-07-26T01:06:22.784Z,55.64
2022-07-26T01:10:23.776Z,55.88
2022-07-26T01:14:23.608Z,56.14
2022-07-26T01:18:20.712Z,55.95
2022-07-26T01:22:17.682Z,56.30
2022-07-26T01:26:14.633Z,55.69
2022-07-26T01:30:13.025Z,56.04
2022-07-26T01:34:10.379Z,55.92
2022-07-26T01:38:07.697Z,55.97
2022-07-26T01:42:05.365Z,56.38
2022-07-26T01:46:03.763Z,56.45
2022-07-26T01:50:00.826Z,57.06
2022-07-26T01:53:57.881Z,57.20
2022-07-26T01:57:57.180Z,57.43
2022-07-26T02:01:54.287Z,57.96
2022-07-26T02:05:51.311Z,57.90
2022-07-26T02:09:49.510Z,58.59
2022-07-26T02:13:51.263Z,58.73
2022-07-26T02:17:49.966Z,58.65
2022-07-26T02:21:46.913Z,59.28
2022-07-26T02:25:43.973Z,60.24
2022-07-26T02:29:41.030Z,61.01
2022-07-26T02:33:38.032Z,61.85
2022-07-26T02:37:36.613Z,61.93
2022-07-26T02:41:41.244Z,61.37
2022-07-26T02:45:39.076Z,62.34
2022-07-26T02:49:36.073Z,61.94
2022-07-26T02:53:34.930Z,61.54
2022-07-26T02:57:35.102Z,61.76
2022-07-26T03:01:43.426Z,61.53
2022-07-26T03:05:40.842Z,61.57
2022-07-26T03:09:37.884Z,61.77
2022-07-26T03:13:34.920Z,61.74
2022-07-26T03:17:32.299Z,61.31
2022-07-26T03:21:29.349Z,61.38
2022-07-26T03:25:26.470Z,61.56
2022-07-26T03:29:23.442Z,61.30
2022-07-26T03:33:20.398Z,61.57
2022-07-26T03:37:18.547Z,61.30
2022-07-26T03:41:15.531Z,61.37
2022-07-26T03:45:13.182Z,60.67
2022-07-26T03:49:14.649Z,61.27
2022-07-26T03:53:13.800Z,60.53
2022-07-26T03:57:10.807Z,60.36
2022-07-26T04:01:07.842Z,58.53
2022-07-26T04:05:05.421Z,57.82
2022-07-26T04:09:03.547Z,58.32
2022-07-26T04:13:02.316Z,58.31
2022-07-26T04:16:59.428Z,58.33
2022-07-26T04:20:56.608Z,57.59
2022-07-26T04:24:53.660Z,58.12
2022-07-26T04:28:50.946Z,57.82
2022-07-26T04:32:47.956Z,57.78
2022-07-26T04:36:44.935Z,57.76
2022-07-26T04:40:42.041Z,56.42
2022-07-26T04:44:40.289Z,56.09
2022-07-26T04:48:38.341Z,55.69
2022-07-26T04:52:35.484Z,55.67
2022-07-26T04:56:32.481Z,55.51
2022-07-26T05:00:29.564Z,55.43
2022-07-26T05:04:26.696Z,55.34
2022-07-26T05:08:23.687Z,54.74
2022-07-26T05:12:20.668Z,54.24
2022-07-26T05:16:17.962Z,53.38
2022-07-26T05:20:17.234Z,52.65
2022-07-26T05:24:14.374Z,52.56
2022-07-26T05:28:11.806Z,52.46
2022-07-26T05:32:09.170Z,52.92
2022-07-26T05:36:06.648Z,52.63
2022-07-26T05:40:07.904Z,52.61
2022-07-26T05:44:05.421Z,51.24
2022-07-26T05:48:02.783Z,49.98
2022-07-26T05:52:01.416Z,49.63
2022-07-26T05:55:58.580Z,49.73
2022-07-26T05:59:55.596Z,48.13
2022-07-26T06:03:52.663Z,48.60
2022-07-26T06:07:49.712Z,46.64
2022-07-26T06:11:46.931Z,46.81
2022-07-26T06:15:45.861Z,44.73
2022-07-26T06:19:47.583Z,43.80
2022-07-26T06:23:44.962Z,42.74
2022-07-26T06:27:41.920Z,43.17
2022-07-26T06:31:38.985Z,42.61
2022-07-26T06:35:39.263Z,41.48
2022-07-26T06:39:36.240Z,41.69
2022-07-26T06:43:33.176Z,41.66
2022-07-26T06:47:30.236Z,42.28
2022-07-26T06:51:27.696Z,42.37
2022-07-26T06:55:24.706Z,42.11
2022-07-26T06:59:21.656Z,41.81
2022-07-26T07:03:18.726Z,41.97
2022-07-26T07:07:15.715Z,41.49
2022-07-26T07:11:12.702Z,41.46
2022-07-26T07:15:12.288Z,41.74
2022-07-26T07:19:09.331Z,43.46
2022-07-26T07:23:07.175Z,43.45
2022-07-26T07:27:04.983Z,43.31
2022-07-26T07:31:03.742Z,42.75
2022-07-26T07:35:00.927Z,43.76
2022-07-26T07:38:59.203Z,44.53
2022-07-26T07:42:59.461Z,44.96
2022-07-26T07:46:56.547Z,45.06
2022-07-26T07:50:53.937Z,45.24
2022-07-26T07:54:50.986Z,44.67
2022-07-26T07:58:48.116Z,44.71
2022-07-26T08:02:48.535Z,42.93
2022-07-26T08:06:50.454Z,41.02
2022-07-26T08:10:51.966Z,39.91
2022-07-26T08:14:49.751Z,36.62
2022-07-26T08:18:57.047Z,35.39
2022-07-26T08:23:03.720Z,33.95
2022-07-26T08:27:00.883Z,34.57
2022-07-26T08:30:57.982Z,32.51
2022-07-26T08:34:55.042Z,31.74
2022-07-26T08:39:12.057Z,31.02
2022-07-26T08:43:11.194Z,30.84
2022-07-26T08:47:12.414Z,30.48
2022-07-26T08:51:11.068Z,31.84
2022-07-26T08:55:09.193Z,30.97
2022-07-26T08:59:20.262Z,31.58
2022-07-26T09:03:26.759Z,30.07
2022-07-26T09:07:23.849Z,31.66
2022-07-26T09:11:32.608Z,32.93
2022-07-26T09:15:29.770Z,35.11
2022-07-26T09:19:27.620Z,36.15
2022-07-26T09:23:24.605Z,37.59
2022-07-26T09:27:26.456Z,38.01
2022-07-26T09:31:25.265Z,39.10
2022-07-26T09:35:51.399Z,38.60
2022-07-26T09:40:02.057Z,34.40
2022-07-26T09:44:04.172Z,32.21
2022-07-26T09:48:03.061Z,29.14
2022-07-26T09:52:00.096Z,31.11
2022-07-26T09:55:57.541Z,33.39
2022-07-26T09:59:55.360Z,35.16
2022-07-26T10:03:52.347Z,35.70
2022-07-26T10:07:51.979Z,37.16
2022-07-26T10:12:03.332Z,37.23
2022-07-26T10:16:00.502Z,36.67
2022-07-26T10:20:04.238Z,34.66
2022-07-26T10:24:26.682Z,31.50
2022-07-26T10:28:27.452Z,29.74
2022-07-26T10:32:24.628Z,27.55
2022-07-26T10:36:33.518Z,26.41
2022-07-26T10:40:31.672Z,28.76
2022-07-26T10:44:45.329Z,31.77
2022-07-26T10:49:08.729Z,30.82
2022-07-26T10:53:07.534Z,31.15
2022-07-26T10:57:04.771Z,30.41
2022-07-26T11:01:05.130Z,28.78
2022-07-26T11:05:13.425Z,26.74
2022-07-26T11:09:12.679Z,26.48
2022-07-26T11:13:23.878Z,26.52
2022-07-26T11:17:29.920Z,25.51
2022-07-26T11:21:27.493Z,27.16
2022-07-26T11:25:24.514Z,29.54
2022-07-26T11:29:39.055Z,31.60
2022-07-26T11:33:45.840Z,32.89
2022-07-26T11:38:07.857Z,32.34
2022-07-26T11:42:15.171Z,29.22
2022-07-26T11:46:12.534Z,25.58
2022-07-26T11:50:14.363Z,26.57
2022-07-26T11:54:15.594Z,29.34
2022-07-26T11:58:12.706Z,30.65
2022-07-26T12:02:11.378Z,30.95
2022-07-26T12:06:16.270Z,29.00
2022-07-26T12:10:16.811Z,29.23
2022-07-26T12:14:18.341Z,29.98
2022-07-26T12:18:30.952Z,28.34
2022-07-26T12:22:27.934Z,27.61
2022-07-26T12:26:28.701Z,29.66
2022-07-26T12:30:25.861Z,31.28
2022-07-26T12:34:28.005Z,31.23
2022-07-26T12:38:40.765Z,28.20
2022-07-26T12:42:44.417Z,27.67
2022-07-26T12:46:41.530Z,25.79
2022-07-26T12:50:39.013Z,24.65
2022-07-26T12:54:36.051Z,24.01
2022-07-26T12:58:33.106Z,23.15
2022-07-26T13:02:30.140Z,22.76
2022-07-26T13:06:27.331Z,21.33
2022-07-26T13:10:34.060Z,22.04
2022-07-26T13:14:36.936Z,22.03
2022-07-26T13:18:33.904Z,21.98
2022-07-26T13:22:30.894Z,23.99
2022-07-26T13:26:28.202Z,25.35
2022-07-26T13:30:25.274Z,25.52
2022-07-26T13:34:23.731Z,24.98
2022-07-26T13:38:20.794Z,24.83
2022-07-26T13:42:19.410Z,24.31
2022-07-26T13:46:16.734Z,23.58
2022-07-26T13:50:13.741Z,22.67
2022-07-26T13:54:13.682Z,22.90
2022-07-26T13:58:11.088Z,24.78
2022-07-26T14:02:08.379Z,24.66
2022-07-26T14:06:05.453Z,24.46
2022-07-26T14:10:02.478Z,25.92
2022-07-26T14:14:01.926Z,27.03
2022-07-26T14:17:59.020Z,27.70
2022-07-26T14:22:00.018Z,28.06
2022-07-26T14:25:57.505Z,25.97
2022-07-26T14:29:54.472Z,24.50
2022-07-26T14:33:51.590Z,24.41
2022-07-26T14:37:48.612Z,25.35
2022-07-26T14:41:45.754Z,25.53
2022-07-26T14:45:42.914Z,26.96
2022-07-26T14:49:40.086Z,29.12
2022-07-26T14:53:37.218Z,29.28
2022-07-26T14:57:34.976Z,26.95
2022-07-26T15:01:36.767Z,24.40
2022-07-26T15:05:33.802Z,24.21
2022-07-26T15:09:30.761Z,23.52
2022-07-26T15:13:27.888Z,23.29
2022-07-26T15:17:25.016Z,21.91
2022-07-26T15:21:22.093Z,21.88
2022-07-26T15:25:19.078Z,21.71
2022-07-26T15:29:16.131Z,21.25
2022-07-26T15:33:14.530Z,22.22
2022-07-26T15:37:11.781Z,22.98
2022-07-26T15:41:08.815Z,25.10
2022-07-26T15:45:09.339Z,25.43
2022-07-26T15:49:07.614Z,24.23
2022-07-26T15:53:04.842Z,22.40
2022-07-26T15:57:01.866Z,21.99
2022-07-26T16:00:58.885Z,23.22
2022-07-26T16:04:55.937Z,23.99
2022-07-26T16:09:15.201Z,23.62
2022-07-26T16:13:09.906Z,22.18
2022-07-26T16:17:06.919Z,22.22
2022-07-26T16:21:04.236Z,22.00
2022-07-26T16:25:01.326Z,22.45
2022-07-26T16:28:59.409Z,23.12
2022-07-26T16:32:56.343Z,23.54
2022-07-26T16:36:54.281Z,22.50
2022-07-26T16:40:51.561Z,21.65
2022-07-26T16:44:49.050Z,21.23
2022-07-26T16:48:46.164Z,21.64
2022-07-26T16:52:43.280Z,23.05
2022-07-26T16:56:40.328Z,23.96
2022-07-26T17:00:37.512Z,24.36
2022-07-26T17:04:35.761Z,23.58
2022-07-26T17:08:32.818Z,22.34
2022-07-26T17:12:29.834Z,22.16
2022-07-26T17:16:27.060Z,21.42
2022-07-26T17:20:24.410Z,21.76
2022-07-26T17:24:21.544Z,22.15
2022-07-26T17:28:18.622Z,23.07
2022-07-26T17:32:15.639Z,23.43
2022-07-26T17:36:19.826Z,25.64
2022-07-26T17:40:17.074Z,28.58
2022-07-26T17:44:14.143Z,30.07
2022-07-26T17:48:11.206Z,30.92
2022-07-26T17:52:08.966Z,31.20
2022-07-26T17:56:06.124Z,31.30
2022-07-26T18:00:06.945Z,31.05
2022-07-26T18:04:04.248Z,30.94
2022-07-26T18:08:01.892Z,30.78
2022-07-26T18:11:58.965Z,31.67
2022-07-26T18:15:56.672Z,32.66
2022-07-26T18:19:53.851Z,32.88
2022-07-26T18:24:15.214Z,33.41
2022-07-26T18:28:09.616Z,34.64
2022-07-26T18:32:06.901Z,35.57
2022-07-26T18:36:04.312Z,35.82
2022-07-26T18:40:01.977Z,36.08
2022-07-26T18:43:59.168Z,36.96
2022-07-26T18:47:56.216Z,37.33
2022-07-26T18:51:53.543Z,37.77
2022-07-26T18:55:51.256Z,38.08
2022-07-26T18:59:48.282Z,38.57
2022-07-26T19:03:45.537Z,39.65
2022-07-26T19:07:43.396Z,39.55
2022-07-26T19:11:40.370Z,39.65
2022-07-26T19:15:37.382Z,39.95
2022-07-26T19:19:34.311Z,40.61
2022-07-26T19:23:31.365Z,41.40
2022-07-26T19:27:28.591Z,40.93
2022-07-26T19:31:25.636Z,41.59
2022-07-26T19:35:22.732Z,41.11
2022-07-26T19:39:20.902Z,41.37
2022-07-26T19:43:17.909Z,41.45
2022-07-26T19:47:16.040Z,42.01
2022-07-26T19:51:13.171Z,42.65
2022-07-26T19:55:10.432Z,43.44
2022-07-26T19:59:07.714Z,43.35
2022-07-26T20:03:04.939Z,43.80
2022-07-26T20:07:02.600Z,43.53
2022-07-26T20:10:59.594Z,44.02
2022-07-26T20:14:56.767Z,44.81
2022-07-26T20:18:54.030Z,45.23
2022-07-26T20:22:51.054Z,46.07
2022-07-26T20:26:48.148Z,45.96
2022-07-26T20:30:48.347Z,45.92
2022-07-26T20:34:45.753Z,47.25
2022-07-26T20:38:42.744Z,47.83
2022-07-26T20:42:41.911Z,48.55
2022-07-26T20:46:41.867Z,48.06
2022-07-26T20:50:38.862Z,48.43
2022-07-26T20:54:35.918Z,49.10
2022-07-26T20:58:33.190Z,49.12
2022-07-26T21:02:30.204Z,49.13
2022-07-26T21:06:29.228Z,48.90
2022-07-26T21:10:30.031Z,49.45
2022-07-26T21:14:27.024Z,49.87
2022-07-26T21:18:25.914Z,49.90
2022-07-26T21:22:22.892Z,50.22
2022-07-26T21:26:20.084Z,50.25
2022-07-26T21:30:17.058Z,50.48
2022-07-26T21:34:14.458Z,50.88
2022-07-26T21:38:12.027Z,51.13
2022-07-26T21:42:09.031Z,51.64
2022-07-26T21:46:11.888Z,52.08
2022-07-26T21:50:10.094Z,52.51
2022-07-26T21:54:07.262Z,52.20
2022-07-26T21:58:04.295Z,52.71
2022-07-26T22:02:01.513Z,52.56
2022-07-26T22:05:59.146Z,53.38
2022-07-26T22:09:56.121Z,52.89
2022-07-26T22:13:53.202Z,53.83
2022-07-26T22:17:50.318Z,54.23
2022-07-26T22:21:47.272Z,55.15
2022-07-26T22:25:44.747Z,54.99
2022-07-26T22:29:41.722Z,55.23
2022-07-26T22:33:38.773Z,54.89
2022-07-26T22:37:35.983Z,55.26
2022-07-26T22:41:38.466Z,55.46
2022-07-26T22:45:48.706Z,56.01
2022-07-26T22:49:45.791Z,56.27
2022-07-26T22:53:42.763Z,56.53
2022-07-26T22:57:44.704Z,56.76
2022-07-26T23:01:41.761Z,56.60
2022-07-26T23:05:46.382Z,56.85
2022-07-26T23:09:44.743Z,57.41
2022-07-26T23:13:41.755Z,57.86
2022-07-26T23:17:39.351Z,58.22
2022-07-26T23:21:36.403Z,58.55
2022-07-26T23:25:34.244Z,58.96
2022-07-26T23:29:31.810Z,59.36
2022-07-26T23:33:53.534Z,59.56
2022-07-26T23:37:45.712Z,59.73
2022-07-26T23:41:42.759Z,59.95
2022-07-26T23:45:39.721Z,60.50
2022-07-26T23:49:36.717Z,61.21
2022-07-26T23:53:33.750Z,60.77
2022-07-26T23:57:30.698Z,61.00
